sensor_id;sensor_type;location;lat;lon;timestamp;P1;durP1;ratioP1;P2;durP2;ratioP2
3975;SDS011;2002;48.812;9.180;2022-09-16T00:00:24;0.90;;;0.73;;
3975;SDS011;2002;48.812;9.180;2022-09-16T00:02:51;1.30;;;1.17;;
3975;SDS011;2002;48.812;9.180;2022-09-16T00:05:18;0.70;;;0.60;;
3975;SDS011;2002;48.812;9.180;2022-09-16T00:07:44;1.13;;;1.03;;
3975;SDS011;2002;48.812;9.180;2022-09-16T00:10:10;1.10;;;1.00;;
3975;SDS011;2002;48.812;9.180;2022-09-16T00:12:35;0.90;;;0.90;;
3975;SDS011;2002;48.812;9.180;2022-09-16T00:15:01;1.30;;;1.10;;
3975;SDS011;2002;48.812;9.180;2022-09-16T00:17:27;1.00;;;1.00;;
3975;SDS011;2002;48.812;9.180;2022-09-16T00:19:54;0.90;;;0.90;;
3975;SDS011;2002;48.812;9.180;2022-09-16T00:22:20;0.90;;;0.80;;
3975;SDS011;2002;48.812;9.180;2022-09-16T00:24:47;0.80;;;0.80;;
3975;SDS011;2002;48.812;9.180;2022-09-16T00:27:13;1.13;;;1.00;;
3975;SDS011;2002;48.812;9.180;2022-09-16T00:29:38;1.20;;;0.90;;
3975;SDS011;2002;48.812;9.180;2022-09-16T00:32:04;1.10;;;1.00;;
3975;SDS011;2002;48.812;9.180;2022-09-16T00:34:30;1.10;;;1.00;;
3975;SDS011;2002;48.812;9.180;2022-09-16T00:36:55;1.00;;;0.90;;
3975;SDS011;2002;48.812;9.180;2022-09-16T00:39:21;1.00;;;0.90;;
3975;SDS011;2002;48.812;9.180;2022-09-16T00:41:46;1.33;;;1.23;;
3975;SDS011;2002;48.812;9.180;2022-09-16T00:47:15;0.70;;;0.70;;
3975;SDS011;2002;48.812;9.180;2022-09-16T00:49:45;0.97;;;0.97;;
3975;SDS011;2002;48.812;9.180;2022-09-16T00:52:13;1.10;;;1.00;;
3975;SDS011;2002;48.812;9.180;2022-09-16T00:54:39;0.80;;;0.70;;
3975;SDS011;2002;48.812;9.180;2022-09-16T00:57:06;0.87;;;0.87;;
3975;SDS011;2002;48.812;9.180;2022-09-16T00:59:36;0.97;;;0.87;;
3975;SDS011;2002;48.812;9.180;2022-09-16T01:02:06;1.10;;;1.00;;
3975;SDS011;2002;48.812;9.180;2022-09-16T01:04:36;0.90;;;0.90;;
3975;SDS011;2002;48.812;9.180;2022-09-16T01:07:10;1.07;;;0.97;;
3975;SDS011;2002;48.812;9.180;2022-09-16T01:09:36;0.90;;;0.70;;
3975;SDS011;2002;48.812;9.180;2022-09-16T01:12:02;1.00;;;1.00;;
3975;SDS011;2002;48.812;9.180;2022-09-16T01:14:28;0.73;;;0.70;;
3975;SDS011;2002;48.812;9.180;2022-09-16T01:20:23;1.10;;;1.00;;
3975;SDS011;2002;48.812;9.180;2022-09-16T01:31:17;1.00;;;0.90;;
3975;SDS011;2002;48.812;9.180;2022-09-16T01:36:44;1.23;;;1.10;;
3975;SDS011;2002;48.812;9.180;2022-09-16T01:39:20;1.17;;;1.07;;
3975;SDS011;2002;48.812;9.180;2022-09-16T01:42:11;1.33;;;1.07;;
3975;SDS011;2002;48.812;9.180;2022-09-16T01:52:40;0.90;;;0.90;;
3975;SDS011;2002;48.812;9.180;2022-09-16T01:55:23;1.03;;;0.93;;
3975;SDS011;2002;48.812;9.180;2022-09-16T01:57:57;1.20;;;1.10;;
3975;SDS011;2002;48.812;9.180;2022-09-16T02:00:33;0.90;;;0.80;;
3975;SDS011;2002;48.812;9.180;2022-09-16T02:03:00;0.83;;;0.80;;
3975;SDS011;2002;48.812;9.180;2022-09-16T02:05:36;0.90;;;0.90;;
3975;SDS011;2002;48.812;9.180;2022-09-16T02:08:25;1.00;;;0.90;;
3975;SDS011;2002;48.812;9.180;2022-09-16T02:10:56;1.17;;;1.10;;
3975;SDS011;2002;48.812;9.180;2022-09-16T02:13:38;1.10;;;0.97;;
3975;SDS011;2002;48.812;9.180;2022-09-16T02:16:08;1.40;;;1.00;;
3975;SDS011;2002;48.812;9.180;2022-09-16T02:18:39;1.03;;;0.90;;
3975;SDS011;2002;48.812;9.180;2022-09-16T02:21:08;0.90;;;0.80;;
3975;SDS011;2002;48.812;9.180;2022-09-16T02:23:39;1.07;;;0.97;;
3975;SDS011;2002;48.812;9.180;2022-09-16T02:26:09;1.17;;;1.07;;
3975;SDS011;2002;48.812;9.180;2022-09-16T02:28:40;1.20;;;1.10;;
3975;SDS011;2002;48.812;9.180;2022-09-16T02:31:08;1.43;;;1.23;;
3975;SDS011;2002;48.812;9.180;2022-09-16T02:33:36;0.87;;;0.87;;
3975;SDS011;2002;48.812;9.180;2022-09-16T02:36:11;0.87;;;0.87;;
3975;SDS011;2002;48.812;9.180;2022-09-16T02:38:44;1.20;;;1.10;;
3975;SDS011;2002;48.812;9.180;2022-09-16T02:41:13;1.33;;;0.97;;
3975;SDS011;2002;48.812;9.180;2022-09-16T02:43:42;1.07;;;0.97;;
3975;SDS011;2002;48.812;9.180;2022-09-16T02:51:37;1.27;;;1.17;;
3975;SDS011;2002;48.812;9.180;2022-09-16T02:54:21;1.00;;;0.90;;
3975;SDS011;2002;48.812;9.180;2022-09-16T02:56:48;0.70;;;0.70;;
3975;SDS011;2002;48.812;9.180;2022-09-16T02:59:13;1.77;;;1.30;;
3975;SDS011;2002;48.812;9.180;2022-09-16T03:01:41;2.17;;;1.10;;
3975;SDS011;2002;48.812;9.180;2022-09-16T03:04:10;1.60;;;1.50;;
3975;SDS011;2002;48.812;9.180;2022-09-16T03:06:38;0.90;;;0.90;;
3975;SDS011;2002;48.812;9.180;2022-09-16T03:09:05;0.67;;;0.67;;
3975;SDS011;2002;48.812;9.180;2022-09-16T03:34:21;1.37;;;1.27;;
3975;SDS011;2002;48.812;9.180;2022-09-16T03:37:01;0.93;;;0.83;;
3975;SDS011;2002;48.812;9.180;2022-09-16T03:39:30;1.10;;;0.90;;
3975;SDS011;2002;48.812;9.180;2022-09-16T03:42:03;1.13;;;1.03;;
3975;SDS011;2002;48.812;9.180;2022-09-16T03:44:36;0.87;;;0.87;;
3975;SDS011;2002;48.812;9.180;2022-09-16T03:47:04;1.30;;;1.20;;
3975;SDS011;2002;48.812;9.180;2022-09-16T03:49:31;1.00;;;0.90;;
3975;SDS011;2002;48.812;9.180;2022-09-16T03:51:56;1.00;;;1.00;;
3975;SDS011;2002;48.812;9.180;2022-09-16T03:54:22;1.00;;;0.80;;
3975;SDS011;2002;48.812;9.180;2022-09-16T03:56:48;1.10;;;1.00;;
3975;SDS011;2002;48.812;9.180;2022-09-16T03:59:13;1.17;;;1.03;;
3975;SDS011;2002;48.812;9.180;2022-09-16T04:01:39;1.17;;;1.07;;
3975;SDS011;2002;48.812;9.180;2022-09-16T04:04:04;1.60;;;1.50;;
3975;SDS011;2002;48.812;9.180;2022-09-16T04:06:30;1.10;;;1.00;;
3975;SDS011;2002;48.812;9.180;2022-09-16T04:08:56;1.03;;;0.90;;
3975;SDS011;2002;48.812;9.180;2022-09-16T04:11:23;1.70;;;1.20;;
3975;SDS011;2002;48.812;9.180;2022-09-16T04:13:48;1.03;;;0.93;;
3975;SDS011;2002;48.812;9.180;2022-09-16T04:16:18;1.13;;;1.07;;
3975;SDS011;2002;48.812;9.180;2022-09-16T04:18:47;1.33;;;1.23;;
3975;SDS011;2002;48.812;9.180;2022-09-16T04:21:13;0.83;;;0.80;;
3975;SDS011;2002;48.812;9.180;2022-09-16T04:23:39;1.60;;;1.50;;
3975;SDS011;2002;48.812;9.180;2022-09-16T04:26:04;0.90;;;0.90;;
3975;SDS011;2002;48.812;9.180;2022-09-16T04:28:32;1.03;;;0.97;;
3975;SDS011;2002;48.812;9.180;2022-09-16T04:31:05;1.07;;;0.90;;
3975;SDS011;2002;48.812;9.180;2022-09-16T04:33:33;1.30;;;1.20;;
3975;SDS011;2002;48.812;9.180;2022-09-16T04:38:39;1.53;;;1.23;;
3975;SDS011;2002;48.812;9.180;2022-09-16T04:41:06;1.03;;;0.90;;
3975;SDS011;2002;48.812;9.180;2022-09-16T04:43:34;1.40;;;1.30;;
3975;SDS011;2002;48.812;9.180;2022-09-16T04:46:00;1.30;;;1.20;;
3975;SDS011;2002;48.812;9.180;2022-09-16T04:48:27;1.40;;;1.30;;
3975;SDS011;2002;48.812;9.180;2022-09-16T04:50:53;1.10;;;0.90;;
3975;SDS011;2002;48.812;9.180;2022-09-16T04:53:19;1.10;;;1.00;;
3975;SDS011;2002;48.812;9.180;2022-09-16T04:55:46;1.10;;;1.00;;
3975;SDS011;2002;48.812;9.180;2022-09-16T04:58:12;1.23;;;0.90;;
3975;SDS011;2002;48.812;9.180;2022-09-16T05:00:38;1.00;;;0.93;;
3975;SDS011;2002;48.812;9.180;2022-09-16T05:03:03;1.00;;;1.00;;
3975;SDS011;2002;48.812;9.180;2022-09-16T05:05:29;1.00;;;0.90;;
3975;SDS011;2002;48.812;9.180;2022-09-16T05:07:54;1.00;;;0.80;;
3975;SDS011;2002;48.812;9.180;2022-09-16T05:10:20;1.00;;;1.00;;
3975;SDS011;2002;48.812;9.180;2022-09-16T05:12:52;1.20;;;1.10;;
3975;SDS011;2002;48.812;9.180;2022-09-16T05:15:18;1.00;;;0.90;;
3975;SDS011;2002;48.812;9.180;2022-09-16T05:17:44;1.20;;;1.10;;
3975;SDS011;2002;48.812;9.180;2022-09-16T05:20:09;1.00;;;1.00;;
3975;SDS011;2002;48.812;9.180;2022-09-16T05:22:35;1.10;;;1.00;;
3975;SDS011;2002;48.812;9.180;2022-09-16T05:25:01;1.17;;;1.07;;
3975;SDS011;2002;48.812;9.180;2022-09-16T05:27:29;1.20;;;1.10;;
3975;SDS011;2002;48.812;9.180;2022-09-16T05:29:55;1.10;;;1.00;;
3975;SDS011;2002;48.812;9.180;2022-09-16T05:32:20;1.20;;;1.10;;
3975;SDS011;2002;48.812;9.180;2022-09-16T05:34:46;0.90;;;0.90;;
3975;SDS011;2002;48.812;9.180;2022-09-16T05:37:13;1.23;;;1.13;;
3975;SDS011;2002;48.812;9.180;2022-09-16T05:39:39;1.20;;;1.10;;
3975;SDS011;2002;48.812;9.180;2022-09-16T05:42:04;1.10;;;1.00;;
3975;SDS011;2002;48.812;9.180;2022-09-16T05:44:30;1.30;;;1.20;;
3975;SDS011;2002;48.812;9.180;2022-09-16T05:46:56;1.13;;;1.03;;
3975;SDS011;2002;48.812;9.180;2022-09-16T05:49:21;1.10;;;1.00;;
3975;SDS011;2002;48.812;9.180;2022-09-16T05:51:47;1.83;;;1.07;;
3975;SDS011;2002;48.812;9.180;2022-09-16T05:54:14;1.10;;;1.00;;
3975;SDS011;2002;48.812;9.180;2022-09-16T05:56:42;1.00;;;0.90;;
3975;SDS011;2002;48.812;9.180;2022-09-16T05:59:08;1.10;;;1.00;;
3975;SDS011;2002;48.812;9.180;2022-09-16T06:01:35;1.20;;;1.10;;
3975;SDS011;2002;48.812;9.180;2022-09-16T06:04:02;1.23;;;1.10;;
3975;SDS011;2002;48.812;9.180;2022-09-16T06:06:30;1.13;;;1.03;;
3975;SDS011;2002;48.812;9.180;2022-09-16T06:08:58;0.80;;;0.80;;
3975;SDS011;2002;48.812;9.180;2022-09-16T06:11:25;1.10;;;1.00;;
3975;SDS011;2002;48.812;9.180;2022-09-16T06:13:52;1.30;;;1.20;;
3975;SDS011;2002;48.812;9.180;2022-09-16T06:16:24;1.40;;;1.10;;
3975;SDS011;2002;48.812;9.180;2022-09-16T06:18:51;1.10;;;1.00;;
3975;SDS011;2002;48.812;9.180;2022-09-16T06:21:17;1.20;;;1.10;;
3975;SDS011;2002;48.812;9.180;2022-09-16T06:23:43;1.80;;;1.23;;
3975;SDS011;2002;48.812;9.180;2022-09-16T06:26:13;1.30;;;1.20;;
3975;SDS011;2002;48.812;9.180;2022-09-16T06:28:40;1.13;;;1.10;;
3975;SDS011;2002;48.812;9.180;2022-09-16T06:31:10;1.27;;;0.90;;
3975;SDS011;2002;48.812;9.180;2022-09-16T06:33:40;1.00;;;0.90;;
3975;SDS011;2002;48.812;9.180;2022-09-16T06:36:10;0.73;;;0.73;;
3975;SDS011;2002;48.812;9.180;2022-09-16T06:38:37;0.97;;;0.80;;
3975;SDS011;2002;48.812;9.180;2022-09-16T06:41:04;1.07;;;0.97;;
3975;SDS011;2002;48.812;9.180;2022-09-16T06:43:31;1.47;;;1.37;;
3975;SDS011;2002;48.812;9.180;2022-09-16T06:46:04;0.90;;;0.90;;
3975;SDS011;2002;48.812;9.180;2022-09-16T06:48:37;1.13;;;1.03;;
3975;SDS011;2002;48.812;9.180;2022-09-16T06:51:06;1.20;;;1.10;;
3975;SDS011;2002;48.812;9.180;2022-09-16T06:53:34;1.07;;;1.00;;
3975;SDS011;2002;48.812;9.180;2022-09-16T06:56:00;0.97;;;0.87;;
3975;SDS011;2002;48.812;9.180;2022-09-16T06:58:31;1.00;;;0.90;;
3975;SDS011;2002;48.812;9.180;2022-09-16T07:00:58;1.27;;;1.17;;
3975;SDS011;2002;48.812;9.180;2022-09-16T07:03:28;1.33;;;1.23;;
3975;SDS011;2002;48.812;9.180;2022-09-16T07:05:54;1.00;;;0.90;;
3975;SDS011;2002;48.812;9.180;2022-09-16T07:08:26;0.97;;;0.87;;
3975;SDS011;2002;48.812;9.180;2022-09-16T07:10:57;1.10;;;1.00;;
3975;SDS011;2002;48.812;9.180;2022-09-16T07:13:26;1.00;;;0.90;;
3975;SDS011;2002;48.812;9.180;2022-09-16T07:15:52;0.80;;;0.80;;
3975;SDS011;2002;48.812;9.180;2022-09-16T07:18:18;0.97;;;0.97;;
3975;SDS011;2002;48.812;9.180;2022-09-16T07:20:44;0.90;;;0.83;;
3975;SDS011;2002;48.812;9.180;2022-09-16T07:23:10;1.30;;;1.10;;
3975;SDS011;2002;48.812;9.180;2022-09-16T07:25:35;1.17;;;1.07;;
3975;SDS011;2002;48.812;9.180;2022-09-16T07:28:01;0.97;;;0.97;;
3975;SDS011;2002;48.812;9.180;2022-09-16T07:30:27;1.00;;;0.90;;
3975;SDS011;2002;48.812;9.180;2022-09-16T07:32:54;1.30;;;1.20;;
3975;SDS011;2002;48.812;9.180;2022-09-16T07:35:20;1.07;;;0.97;;
3975;SDS011;2002;48.812;9.180;2022-09-16T07:37:46;1.03;;;1.00;;
3975;SDS011;2002;48.812;9.180;2022-09-16T07:40:11;1.13;;;1.03;;
3975;SDS011;2002;48.812;9.180;2022-09-16T07:42:37;1.10;;;1.00;;
3975;SDS011;2002;48.812;9.180;2022-09-16T07:45:03;1.40;;;1.30;;
3975;SDS011;2002;48.812;9.180;2022-09-16T07:47:30;1.00;;;0.90;;
3975;SDS011;2002;48.812;9.180;2022-09-16T07:49:55;1.10;;;0.87;;
3975;SDS011;2002;48.812;9.180;2022-09-16T07:52:24;1.10;;;1.00;;
3975;SDS011;2002;48.812;9.180;2022-09-16T07:54:53;1.50;;;1.07;;
3975;SDS011;2002;48.812;9.180;2022-09-16T07:57:19;1.13;;;1.03;;
3975;SDS011;2002;48.812;9.180;2022-09-16T07:59:46;1.03;;;1.03;;
3975;SDS011;2002;48.812;9.180;2022-09-16T08:02:11;1.37;;;1.17;;
3975;SDS011;2002;48.812;9.180;2022-09-16T08:04:37;0.97;;;0.97;;
3975;SDS011;2002;48.812;9.180;2022-09-16T08:07:03;1.00;;;0.90;;
3975;SDS011;2002;48.812;9.180;2022-09-16T08:09:30;1.77;;;1.10;;
3975;SDS011;2002;48.812;9.180;2022-09-16T08:11:56;1.00;;;0.90;;
3975;SDS011;2002;48.812;9.180;2022-09-16T08:14:22;1.20;;;1.10;;
3975;SDS011;2002;48.812;9.180;2022-09-16T08:16:48;1.87;;;0.90;;
3975;SDS011;2002;48.812;9.180;2022-09-16T08:19:17;1.13;;;1.03;;
3975;SDS011;2002;48.812;9.180;2022-09-16T08:21:44;1.17;;;1.07;;
3975;SDS011;2002;48.812;9.180;2022-09-16T08:24:09;0.97;;;0.80;;
3975;SDS011;2002;48.812;9.180;2022-09-16T08:26:35;1.10;;;1.00;;
3975;SDS011;2002;48.812;9.180;2022-09-16T08:29:01;0.97;;;0.80;;
3975;SDS011;2002;48.812;9.180;2022-09-16T08:31:27;1.20;;;1.10;;
3975;SDS011;2002;48.812;9.180;2022-09-16T08:33:52;1.20;;;1.10;;
3975;SDS011;2002;48.812;9.180;2022-09-16T08:36:19;1.40;;;1.00;;
3975;SDS011;2002;48.812;9.180;2022-09-16T08:38:47;1.10;;;1.00;;
3975;SDS011;2002;48.812;9.180;2022-09-16T08:52:07;0.80;;;0.80;;
3975;SDS011;2002;48.812;9.180;2022-09-16T08:54:47;1.03;;;0.93;;
3975;SDS011;2002;48.812;9.180;2022-09-16T08:57:22;1.07;;;0.97;;
3975;SDS011;2002;48.812;9.180;2022-09-16T08:59:55;1.70;;;1.20;;
3975;SDS011;2002;48.812;9.180;2022-09-16T09:04:55;1.23;;;1.13;;
3975;SDS011;2002;48.812;9.180;2022-09-16T09:08:04;1.20;;;1.10;;
3975;SDS011;2002;48.812;9.180;2022-09-16T09:10:21;1.20;;;1.10;;
3975;SDS011;2002;48.812;9.180;2022-09-16T09:15:38;1.17;;;1.07;;
3975;SDS011;2002;48.812;9.180;2022-09-16T09:23:46;1.13;;;1.00;;
3975;SDS011;2002;48.812;9.180;2022-09-16T09:26:20;1.43;;;0.97;;
3975;SDS011;2002;48.812;9.180;2022-09-16T09:32:09;0.87;;;0.83;;
3975;SDS011;2002;48.812;9.180;2022-09-16T09:37:19;1.03;;;1.00;;
3975;SDS011;2002;48.812;9.180;2022-09-16T09:40:46;1.10;;;0.97;;
3975;SDS011;2002;48.812;9.180;2022-09-16T09:43:08;1.30;;;1.20;;
3975;SDS011;2002;48.812;9.180;2022-09-16T09:46:02;1.30;;;1.10;;
3975;SDS011;2002;48.812;9.180;2022-09-16T09:48:32;1.30;;;0.97;;
3975;SDS011;2002;48.812;9.180;2022-09-16T09:51:04;1.63;;;1.20;;
3975;SDS011;2002;48.812;9.180;2022-09-16T09:53:38;1.23;;;0.90;;
3975;SDS011;2002;48.812;9.180;2022-09-16T09:58:43;1.40;;;1.30;;
3975;SDS011;2002;48.812;9.180;2022-09-16T10:01:22;1.17;;;1.07;;
3975;SDS011;2002;48.812;9.180;2022-09-16T10:03:49;1.17;;;1.10;;
3975;SDS011;2002;48.812;9.180;2022-09-16T10:06:18;1.20;;;1.10;;
3975;SDS011;2002;48.812;9.180;2022-09-16T10:08:50;1.10;;;1.00;;
3975;SDS011;2002;48.812;9.180;2022-09-16T10:11:20;2.20;;;1.40;;
3975;SDS011;2002;48.812;9.180;2022-09-16T10:13:51;1.10;;;1.10;;
3975;SDS011;2002;48.812;9.180;2022-09-16T10:16:21;1.20;;;1.10;;
3975;SDS011;2002;48.812;9.180;2022-09-16T10:18:58;1.27;;;0.80;;
3975;SDS011;2002;48.812;9.180;2022-09-16T10:21:47;1.20;;;1.10;;
3975;SDS011;2002;48.812;9.180;2022-09-16T10:27:18;1.10;;;1.00;;
3975;SDS011;2002;48.812;9.180;2022-09-16T10:30:02;1.40;;;1.30;;
3975;SDS011;2002;48.812;9.180;2022-09-16T10:32:29;0.90;;;0.90;;
3975;SDS011;2002;48.812;9.180;2022-09-16T10:34:55;1.23;;;1.07;;
3975;SDS011;2002;48.812;9.180;2022-09-16T10:37:21;1.10;;;1.00;;
3975;SDS011;2002;48.812;9.180;2022-09-16T10:39:54;0.93;;;0.87;;
3975;SDS011;2002;48.812;9.180;2022-09-16T10:42:23;1.23;;;0.90;;
3975;SDS011;2002;48.812;9.180;2022-09-16T10:44:50;0.97;;;0.90;;
3975;SDS011;2002;48.812;9.180;2022-09-16T10:47:21;1.40;;;1.10;;
3975;SDS011;2002;48.812;9.180;2022-09-16T10:49:56;0.83;;;0.80;;
3975;SDS011;2002;48.812;9.180;2022-09-16T10:52:30;1.10;;;1.10;;
3975;SDS011;2002;48.812;9.180;2022-09-16T10:57:50;1.07;;;0.97;;
3975;SDS011;2002;48.812;9.180;2022-09-16T11:05:45;2.50;;;1.43;;
3975;SDS011;2002;48.812;9.180;2022-09-16T11:08:16;3.50;;;1.10;;
3975;SDS011;2002;48.812;9.180;2022-09-16T11:16:34;1.53;;;1.00;;
3975;SDS011;2002;48.812;9.180;2022-09-16T11:30:14;3.13;;;1.33;;
3975;SDS011;2002;48.812;9.180;2022-09-16T11:41:00;1.57;;;1.17;;
3975;SDS011;2002;48.812;9.180;2022-09-16T11:46:31;1.80;;;1.50;;
3975;SDS011;2002;48.812;9.180;2022-09-16T11:49:13;2.90;;;1.80;;
3975;SDS011;2002;48.812;9.180;2022-09-16T11:51:52;3.77;;;1.00;;
3975;SDS011;2002;48.812;9.180;2022-09-16T11:57:32;1.50;;;1.00;;
3975;SDS011;2002;48.812;9.180;2022-09-16T12:00:03;1.53;;;1.20;;
3975;SDS011;2002;48.812;9.180;2022-09-16T12:05:35;1.87;;;1.20;;
3975;SDS011;2002;48.812;9.180;2022-09-16T12:08:17;1.37;;;1.00;;
3975;SDS011;2002;48.812;9.180;2022-09-16T12:10:58;1.93;;;1.27;;
3975;SDS011;2002;48.812;9.180;2022-09-16T12:16:03;1.10;;;1.00;;
3975;SDS011;2002;48.812;9.180;2022-09-16T12:18:46;1.63;;;1.30;;
3975;SDS011;2002;48.812;9.180;2022-09-16T12:21:32;1.20;;;1.10;;
3975;SDS011;2002;48.812;9.180;2022-09-16T12:26:36;1.90;;;1.40;;
3975;SDS011;2002;48.812;9.180;2022-09-16T12:29:14;2.23;;;1.00;;
3975;SDS011;2002;48.812;9.180;2022-09-16T12:31:47;1.00;;;0.90;;
3975;SDS011;2002;48.812;9.180;2022-09-16T12:34:25;1.27;;;0.90;;
3975;SDS011;2002;48.812;9.180;2022-09-16T12:36:59;1.50;;;1.40;;
3975;SDS011;2002;48.812;9.180;2022-09-16T12:39:47;0.93;;;0.90;;
3975;SDS011;2002;48.812;9.180;2022-09-16T12:45:01;1.80;;;1.30;;
3975;SDS011;2002;48.812;9.180;2022-09-16T12:50:59;1.40;;;0.90;;
3975;SDS011;2002;48.812;9.180;2022-09-16T12:53:37;2.07;;;1.30;;
3975;SDS011;2002;48.812;9.180;2022-09-16T13:02:10;1.17;;;1.07;;
3975;SDS011;2002;48.812;9.180;2022-09-16T13:04:41;1.20;;;1.10;;
3975;SDS011;2002;48.812;9.180;2022-09-16T13:09:57;0.87;;;0.80;;
3975;SDS011;2002;48.812;9.180;2022-09-16T13:12:31;1.00;;;0.90;;
3975;SDS011;2002;48.812;9.180;2022-09-16T13:15:01;2.33;;;1.20;;
3975;SDS011;2002;48.812;9.180;2022-09-16T13:17:30;2.07;;;1.10;;
3975;SDS011;2002;48.812;9.180;2022-09-16T13:20:01;1.43;;;1.27;;
3975;SDS011;2002;48.812;9.180;2022-09-16T13:22:43;2.03;;;1.30;;
3975;SDS011;2002;48.812;9.180;2022-09-16T13:25:28;1.97;;;1.30;;
3975;SDS011;2002;48.812;9.180;2022-09-16T13:30:27;1.70;;;1.30;;
3975;SDS011;2002;48.812;9.180;2022-09-16T13:33:01;1.30;;;1.20;;
3975;SDS011;2002;48.812;9.180;2022-09-16T13:35:40;1.30;;;1.20;;
3975;SDS011;2002;48.812;9.180;2022-09-16T13:40:38;1.40;;;1.30;;
3975;SDS011;2002;48.812;9.180;2022-09-16T13:45:35;1.50;;;1.13;;
3975;SDS011;2002;48.812;9.180;2022-09-16T13:48:25;1.47;;;1.10;;
3975;SDS011;2002;48.812;9.180;2022-09-16T13:50:58;1.77;;;1.33;;
3975;SDS011;2002;48.812;9.180;2022-09-16T13:56:19;1.83;;;1.03;;
3975;SDS011;2002;48.812;9.180;2022-09-16T13:59:03;2.30;;;1.30;;
3975;SDS011;2002;48.812;9.180;2022-09-16T14:04:58;2.83;;;1.27;;
3975;SDS011;2002;48.812;9.180;2022-09-16T14:13:11;1.17;;;1.07;;
3975;SDS011;2002;48.812;9.180;2022-09-16T14:15:40;1.30;;;1.20;;
3975;SDS011;2002;48.812;9.180;2022-09-16T14:18:15;1.70;;;1.50;;
3975;SDS011;2002;48.812;9.180;2022-09-16T14:20:51;1.23;;;1.13;;
3975;SDS011;2002;48.812;9.180;2022-09-16T14:23:30;1.30;;;1.20;;
3975;SDS011;2002;48.812;9.180;2022-09-16T14:26:08;3.80;;;1.00;;
3975;SDS011;2002;48.812;9.180;2022-09-16T14:28:37;0.93;;;0.93;;
3975;SDS011;2002;48.812;9.180;2022-09-16T14:31:20;1.00;;;0.90;;
3975;SDS011;2002;48.812;9.180;2022-09-16T14:33:50;1.23;;;1.13;;
3975;SDS011;2002;48.812;9.180;2022-09-16T14:41:28;1.00;;;1.00;;
3975;SDS011;2002;48.812;9.180;2022-09-16T14:44:13;1.40;;;1.23;;
3975;SDS011;2002;48.812;9.180;2022-09-16T14:46:53;1.20;;;1.00;;
3975;SDS011;2002;48.812;9.180;2022-09-16T14:49:22;0.93;;;0.80;;
3975;SDS011;2002;48.812;9.180;2022-09-16T14:51:49;1.10;;;0.90;;
3975;SDS011;2002;48.812;9.180;2022-09-16T14:54:20;1.20;;;1.10;;
3975;SDS011;2002;48.812;9.180;2022-09-16T14:56:54;1.93;;;1.10;;
3975;SDS011;2002;48.812;9.180;2022-09-16T14:59:20;1.40;;;1.20;;
3975;SDS011;2002;48.812;9.180;2022-09-16T15:01:50;2.40;;;1.10;;
3975;SDS011;2002;48.812;9.180;2022-09-16T15:04:18;1.10;;;1.00;;
3975;SDS011;2002;48.812;9.180;2022-09-16T15:06:54;2.53;;;1.10;;
3975;SDS011;2002;48.812;9.180;2022-09-16T15:09:43;1.30;;;1.20;;
3975;SDS011;2002;48.812;9.180;2022-09-16T15:12:27;2.00;;;1.80;;
3975;SDS011;2002;48.812;9.180;2022-09-16T15:14:56;1.30;;;1.20;;
3975;SDS011;2002;48.812;9.180;2022-09-16T15:17:23;4.10;;;1.37;;
3975;SDS011;2002;48.812;9.180;2022-09-16T15:19:55;1.90;;;1.23;;
3975;SDS011;2002;48.812;9.180;2022-09-16T15:22:22;4.93;;;1.47;;
3975;SDS011;2002;48.812;9.180;2022-09-16T15:24:49;1.67;;;1.37;;
3975;SDS011;2002;48.812;9.180;2022-09-16T15:27:25;1.33;;;1.10;;
3975;SDS011;2002;48.812;9.180;2022-09-16T15:29:54;1.33;;;0.83;;
3975;SDS011;2002;48.812;9.180;2022-09-16T15:32:23;2.50;;;1.50;;
3975;SDS011;2002;48.812;9.180;2022-09-16T15:35:54;1.63;;;1.00;;
3975;SDS011;2002;48.812;9.180;2022-09-16T15:37:48;4.00;;;1.70;;
3975;SDS011;2002;48.812;9.180;2022-09-16T15:40:33;3.70;;;2.00;;
3975;SDS011;2002;48.812;9.180;2022-09-16T15:45:31;3.80;;;1.80;;
3975;SDS011;2002;48.812;9.180;2022-09-16T15:47:58;6.53;;;2.00;;
3975;SDS011;2002;48.812;9.180;2022-09-16T15:50:26;4.10;;;2.13;;
3975;SDS011;2002;48.812;9.180;2022-09-16T15:52:59;3.10;;;2.50;;
3975;SDS011;2002;48.812;9.180;2022-09-16T15:55:35;6.10;;;1.83;;
3975;SDS011;2002;48.812;9.180;2022-09-16T15:58:09;3.90;;;1.53;;
3975;SDS011;2002;48.812;9.180;2022-09-16T16:03:54;2.03;;;1.30;;
3975;SDS011;2002;48.812;9.180;2022-09-16T16:11:59;6.07;;;2.70;;
3975;SDS011;2002;48.812;9.180;2022-09-16T16:14:34;2.93;;;2.20;;
3975;SDS011;2002;48.812;9.180;2022-09-16T16:17:02;5.77;;;1.83;;
3975;SDS011;2002;48.812;9.180;2022-09-16T16:19:29;4.10;;;2.33;;
3975;SDS011;2002;48.812;9.180;2022-09-16T16:21:55;4.47;;;3.00;;
3975;SDS011;2002;48.812;9.180;2022-09-16T16:24:24;2.83;;;1.83;;
3975;SDS011;2002;48.812;9.180;2022-09-16T16:26:50;5.47;;;2.10;;
3975;SDS011;2002;48.812;9.180;2022-09-16T16:29:16;3.70;;;1.97;;
3975;SDS011;2002;48.812;9.180;2022-09-16T16:34:34;2.53;;;1.77;;
3975;SDS011;2002;48.812;9.180;2022-09-16T16:37:11;3.10;;;1.67;;
3975;SDS011;2002;48.812;9.180;2022-09-16T16:39:40;3.73;;;2.20;;
3975;SDS011;2002;48.812;9.180;2022-09-16T16:42:06;3.03;;;1.60;;
3975;SDS011;2002;48.812;9.180;2022-09-16T16:44:32;2.80;;;1.63;;
3975;SDS011;2002;48.812;9.180;2022-09-16T16:46:58;2.77;;;2.30;;
3975;SDS011;2002;48.812;9.180;2022-09-16T16:49:24;2.07;;;1.50;;
3975;SDS011;2002;48.812;9.180;2022-09-16T16:51:50;2.13;;;1.70;;
3975;SDS011;2002;48.812;9.180;2022-09-16T16:54:18;4.90;;;2.10;;
3975;SDS011;2002;48.812;9.180;2022-09-16T16:56:45;2.70;;;1.67;;
3975;SDS011;2002;48.812;9.180;2022-09-16T16:59:11;2.37;;;2.07;;
3975;SDS011;2002;48.812;9.180;2022-09-16T17:01:37;2.97;;;1.80;;
3975;SDS011;2002;48.812;9.180;2022-09-16T17:04:03;3.77;;;1.80;;
3975;SDS011;2002;48.812;9.180;2022-09-16T17:06:30;3.80;;;1.90;;
3975;SDS011;2002;48.812;9.180;2022-09-16T17:08:56;3.13;;;1.43;;
3975;SDS011;2002;48.812;9.180;2022-09-16T17:11:22;1.60;;;1.13;;
3975;SDS011;2002;48.812;9.180;2022-09-16T17:13:50;4.03;;;1.40;;
3975;SDS011;2002;48.812;9.180;2022-09-16T17:16:20;4.43;;;1.70;;
3975;SDS011;2002;48.812;9.180;2022-09-16T17:18:48;3.00;;;1.60;;
3975;SDS011;2002;48.812;9.180;2022-09-16T17:21:15;3.60;;;2.00;;
3975;SDS011;2002;48.812;9.180;2022-09-16T17:23:42;1.73;;;1.60;;
3975;SDS011;2002;48.812;9.180;2022-09-16T17:26:08;3.23;;;1.73;;
3975;SDS011;2002;48.812;9.180;2022-09-16T17:28:35;3.00;;;1.60;;
3975;SDS011;2002;48.812;9.180;2022-09-16T17:31:10;1.90;;;1.27;;
3975;SDS011;2002;48.812;9.180;2022-09-16T17:33:40;5.23;;;1.57;;
3975;SDS011;2002;48.812;9.180;2022-09-16T17:36:06;3.47;;;1.90;;
3975;SDS011;2002;48.812;9.180;2022-09-16T17:38:32;1.90;;;1.60;;
3975;SDS011;2002;48.812;9.180;2022-09-16T17:41:03;3.50;;;1.90;;
3975;SDS011;2002;48.812;9.180;2022-09-16T17:43:33;3.10;;;1.60;;
3975;SDS011;2002;48.812;9.180;2022-09-16T17:45:59;3.27;;;2.00;;
3975;SDS011;2002;48.812;9.180;2022-09-16T17:48:27;14.30;;;3.03;;
3975;SDS011;2002;48.812;9.180;2022-09-16T17:50:53;2.50;;;1.70;;
3975;SDS011;2002;48.812;9.180;2022-09-16T17:53:19;2.00;;;1.80;;
3975;SDS011;2002;48.812;9.180;2022-09-16T17:55:45;1.60;;;1.40;;
3975;SDS011;2002;48.812;9.180;2022-09-16T17:58:11;1.80;;;1.70;;
3975;SDS011;2002;48.812;9.180;2022-09-16T18:00:37;2.50;;;1.90;;
3975;SDS011;2002;48.812;9.180;2022-09-16T18:03:03;2.43;;;2.23;;
3975;SDS011;2002;48.812;9.180;2022-09-16T18:05:34;2.70;;;1.63;;
3975;SDS011;2002;48.812;9.180;2022-09-16T18:08:00;3.73;;;2.20;;
3975;SDS011;2002;48.812;9.180;2022-09-16T18:10:27;2.60;;;1.77;;
3975;SDS011;2002;48.812;9.180;2022-09-16T18:12:52;1.57;;;1.30;;
3975;SDS011;2002;48.812;9.180;2022-09-16T18:15:18;3.70;;;1.60;;
3975;SDS011;2002;48.812;9.180;2022-09-16T18:17:43;2.37;;;1.70;;
3975;SDS011;2002;48.812;9.180;2022-09-16T18:20:09;1.67;;;1.57;;
3975;SDS011;2002;48.812;9.180;2022-09-16T18:22:35;1.47;;;1.37;;
3975;SDS011;2002;48.812;9.180;2022-09-16T18:25:01;1.80;;;1.40;;
3975;SDS011;2002;48.812;9.180;2022-09-16T18:27:28;5.93;;;1.80;;
3975;SDS011;2002;48.812;9.180;2022-09-16T18:29:54;1.70;;;1.60;;
3975;SDS011;2002;48.812;9.180;2022-09-16T18:32:21;2.00;;;1.77;;
3975;SDS011;2002;48.812;9.180;2022-09-16T18:34:47;2.67;;;1.83;;
3975;SDS011;2002;48.812;9.180;2022-09-16T18:37:13;2.43;;;1.80;;
3975;SDS011;2002;48.812;9.180;2022-09-16T18:39:38;1.57;;;1.43;;
3975;SDS011;2002;48.812;9.180;2022-09-16T18:42:04;3.83;;;1.90;;